Station: Port Fairy  

  Atmospheric Gas Attenuation - ITU Rec 676-11   ----------------- dB/100km -----------------
Date Time Temp RH % AH g/m3 Dew Point Wind Direction Speed kph Gust kph Barometer mB Rainfall Since 9am 24GHz 47GHz 76GHz 122GHz 134GHz 241GHz
08/05 12:30 14.5 89 11.07 12.7 24 37 1025.8 0.6 24.8 30.3 50.4 132.5 132.6 458.0
08/05 12:20 14.7 87 10.95 12.5 26 32 1025.9 0.6 24.5 30.1 49.7 130.7 130.5 450.8
08/05 12:10 14.7 88 11.08 12.7 22 26 1025.9 0.6 24.8 30.3 50.3 132.3 132.4 457.3
08/05 12:00 14.9 88 11.22 12.9 26 33 1026.1 0.6 25.1 30.5 50.8 133.6 134.1 463.2
08/05 11:50 14 88 10.61 12 30 35 1026.1 0.6 23.9 29.7 48.7 128.0 126.9 438.0
08/05 11:40 14.2 88 10.75 12.2 30 33 1026.1 0.4 24.1 29.9 49.2 129.3 128.5 443.8
08/05 11:30 13.9 89 10.67 12.1 30 43 1026 0.4 24.0 29.8 49.0 128.9 127.9 441.5
08/05 11:20 14.2 89 10.87 12.4 28 35 1026 0.4 24.4 30.1 49.7 130.7 130.3 449.8
08/05 11:10 14.3 88 10.81 12.3 28 33 1026 0.4 24.3 30.0 49.4 129.8 129.2 446.2
08/05 11:00 14.8 86 10.89 12.5 28 39 1025.9 0.2 24.4 29.9 49.4 129.9 129.5 447.3
08/05 10:50 14.6 87 10.89 12.4 24 32 1025.8 0.2 24.4 30.0 49.5 130.2 129.8 448.4
08/05 10:40 14.6 85 10.64 12.1 30 33 1025.8 0.2 23.9 29.5 48.4 127.3 126.3 436.0
08/05 10:30 14.7 82 10.32 11.7 30 43 1025.6 0.2 23.2 29.0 47.0 123.5 121.6 419.6
08/05 10:20 14.6 83 10.39 11.7 30 35 1025.5 0.2 23.4 29.1 47.3 124.4 122.7 423.6
08/05 10:10 14.3 83 10.2 11.4 22 28 1025.4 0.2 23.0 28.9 46.7 122.7 120.5 415.9
08/05 10:00 14.5 83 10.32 11.7 28 39 1025.3 0.2 23.2 29.0 47.1 123.8 121.9 420.6
08/05 09:50 14.4 83 10.26 11.5 28 35 1025.2 0.2 23.1 28.9 46.9 123.2 121.2 418.2
08/05 09:40 14.3 85 10.44 11.8 22 32 1025 0.2 23.5 29.3 47.7 125.4 123.9 427.5
08/05 09:30 14.2 86 10.5 11.9 32 44 1024.8 0.2 23.6 29.4 48.0 126.2 124.9 431.0
08/05 09:20 13.9 88 10.55 11.9 33 44 1024.8 0.2 23.7 29.6 48.4 127.3 126.1 435.1
08/05 09:10 13.3 89 10.28 11.5 30 39 1024.7 0 23.2 29.3 47.6 125.2 123.2 425.0
08/05 09:00 13.7 90 10.66 12.1 30 44 1024.8 0 24.0 29.8 49.0 128.9 128.0 441.7
08/05 08:50 13.6 90 10.59 12 30 39 1024.7 1 23.8 29.8 48.8 128.3 127.1 438.8
08/05 08:40 13.6 90 10.59 12 37 50 1024.5 1 23.8 29.7 48.8 128.2 127.1 438.7
08/05 08:30 13.8 90 10.72 12.2 32 43 1024.5 1 24.1 29.9 49.2 129.4 128.6 444.1
08/05 08:20 13.9 89 10.67 12.1 32 39 1024.5 1 24.0 29.8 48.9 128.7 127.7 441.0
08/05 08:10 13.6 89 10.47 11.8 39 44 1024.3 1 23.6 29.5 48.2 126.8 125.4 432.7
08/05 08:00 13.7 89 10.54 11.9 35 46 1024.3 1 23.7 29.6 48.5 127.5 126.2 435.6
08/05 07:50 13.3 90 10.4 11.7 35 44 1024.1 1 23.5 29.5 48.1 126.5 124.8 430.8
08/05 07:40 13.3 90 10.4 11.7 35 44 1024.1 1 23.5 29.5 48.1 126.5 124.8 430.8
08/05 07:30 13.7 90 10.66 12.1 32 44 1023.9 1 24.0 29.8 49.0 128.8 127.9 441.4
08/05 07:20 13.4 89 10.35 11.6 35 43 1023.8 1 23.3 29.4 47.8 125.7 123.9 427.6
08/05 07:10 13.6 89 10.47 11.8 39 46 1023.6 1 23.6 29.5 48.2 126.7 125.3 432.4
08/05 07:00 13.6 88 10.36 11.7 35 46 1023.5 1 23.4 29.3 47.7 125.5 123.7 426.9
08/05 06:50 13.4 89 10.35 11.6 32 41 1023.4 1 23.3 29.4 47.8 125.7 123.9 427.5
08/05 06:40 13.5 88 10.29 11.5 35 44 1023.4 1 23.2 29.2 47.5 124.8 122.9 424.0
08/05 06:30 13.7 89 10.54 11.9 33 50 1023.1 1 23.7 29.6 48.4 127.3 126.1 435.2
08/05 06:20 13.4 90 10.46 11.8 32 41 1023.2 1 23.6 29.5 48.3 126.9 125.4 432.9
08/05 06:10 13.4 90 10.46 11.8 32 37 1023.2 1 23.6 29.5 48.3 126.9 125.4 432.9
08/05 06:00 13.3 90 10.4 11.7 33 46 1023 1 23.5 29.5 48.1 126.3 124.7 430.4
08/05 05:50 13.2 90 10.33 11.6 33 41 1022.8 1 23.3 29.4 47.8 125.7 123.9 427.4
08/05 05:40 13.6 90 10.59 12 33 43 1022.8 1 23.8 29.7 48.7 128.0 126.9 438.1
08/05 05:30 13.5 88 10.29 11.6 35 52 1022.9 1 23.2 29.2 47.5 124.7 122.8 423.8
08/05 05:20 13.4 88 10.23 11.4 35 44 1022.8 0.8 23.1 29.1 47.3 124.2 122.1 421.3
08/05 05:10 13.4 88 10.23 11.4 32 41 1022.7 0.8 23.1 29.1 47.2 124.2 122.1 421.3
08/05 05:00 13.9 86 10.31 11.6 35 56 1022.6 0.8 23.2 29.1 47.3 124.3 122.4 422.5
08/05 04:50 13.7 86 10.18 11.4 35 44 1022.5 0.8 23.0 28.9 46.8 123.1 120.9 417.2
08/05 04:40 13.5 86 10.06 11.2 44 54 1022.4 0.8 22.7 28.8 46.4 122.0 119.5 412.3
08/05 04:30 13.7 86 10.18 11.4 39 57 1022.3 0.8 23.0 28.9 46.8 123.1 120.9 417.1
08/05 04:20 13.5 88 10.29 11.5 41 50 1022.3 0.8 23.2 29.2 47.4 124.7 122.8 423.6
08/05 04:10 13.5 88 10.29 11.5 41 50 1022.2 0.8 23.2 29.2 47.4 124.7 122.8 423.6
08/05 04:00 13.4 88 10.23 11.5 39 56 1022.2 0.8 23.1 29.1 47.2 124.1 122.1 421.1
08/05 03:50 13.1 88 10.04 11.1 41 52 1022.3 0.8 22.7 28.9 46.6 122.4 119.9 413.4
08/05 03:40 13.5 88 10.29 11.5 41 46 1022.3 0.8 23.2 29.2 47.4 124.7 122.8 423.6
08/05 03:30 13.2 89 10.22 11.4 41 57 1022.2 0.8 23.1 29.1 47.3 124.3 122.3 421.7
08/05 03:20 13.6 89 10.47 11.8 39 52 1022.2 0.8 23.6 29.4 48.1 126.6 125.2 431.9
08/05 03:10 13.4 88 10.23 11.4 37 44 1022.1 0.8 23.1 29.1 47.2 124.1 122.1 421.1
08/05 03:00 13.6 87 10.24 11.5 41 59 1022.2 0.8 23.1 29.0 47.1 123.9 121.9 420.6
08/05 02:50 13.5 88 10.29 11.5 33 41 1022.3 0.8 23.2 29.2 47.4 124.7 122.8 423.6
08/05 02:40 13.6 88 10.36 11.6 37 48 1022.3 0.8 23.4 29.3 47.7 125.3 123.6 426.5
08/05 02:30 13.3 89 10.28 11.5 41 57 1022.3 0.8 23.2 29.2 47.5 124.9 123.0 424.2
08/05 02:20 13.7 88 10.42 11.7 44 61 1022.5 0.8 23.5 29.3 47.9 125.9 124.3 429.0
08/05 02:10 13.9 86 10.31 11.7 33 43 1022.5 0.8 23.2 29.1 47.3 124.3 122.4 422.5
08/05 02:00 13.8 87 10.37 11.7 39 59 1022.5 0.8 23.4 29.2 47.6 125.1 123.4 426.0
08/05 01:50 13.6 86 10.12 11.4 41 44 1022.4 0.8 22.8 28.8 46.6 122.6 120.2 414.7
08/05 01:40 13.5 88 10.29 11.5 44 54 1022.5 0.8 23.2 29.2 47.4 124.7 122.8 423.7
08/05 01:30 13.5 89 10.41 11.7 43 61 1022.8 0.8 23.5 29.4 48.0 126.1 124.5 429.7
08/05 01:20 13.9 86 10.31 11.7 44 50 1022.7 0.8 23.2 29.1 47.3 124.3 122.5 422.5
08/05 01:10 13.6 89 10.47 11.8 39 52 1022.6 0.8 23.6 29.5 48.2 126.6 125.2 432.1
08/05 01:00 13.5 89 10.41 11.7 41 59 1022.3 0.8 23.5 29.4 47.9 126.1 124.5 429.6
08/05 00:50 13.6 89 10.47 11.8 43 50 1022.5 0.8 23.6 29.5 48.2 126.6 125.2 432.1
08/05 00:40 13.6 90 10.59 12 43 52 1022.8 0.8 23.8 29.7 48.7 128.0 126.9 438.1
08/05 00:30 13.6 90 10.59 12 39 56 1022.8 0.6 23.8 29.7 48.7 128.0 126.9 438.1
08/05 00:20 13.5 91 10.64 12 39 44 1022.8 0.6 24.0 29.8 49.0 128.8 127.8 441.2
08/05 00:10 13.7 90 10.66 12.1 39 43 1022.9 0.6 24.0 29.8 48.9 128.7 127.8 441.1
08/05 00:00 13.8 89 10.6 12 39 56 1023 0.6 23.9 29.6 48.6 127.8 126.8 437.6
07/05 23:50 13.5 90 10.53 11.9 39 48 1023 0.6 23.7 29.6 48.5 127.5 126.3 435.8
07/05 23:40 13.6 90 10.59 12 37 46 1023 0.6 23.8 29.7 48.7 128.1 127.0 438.2
07/05 23:30 13.3 89 10.28 11.5 39 54 1023 0.6 23.2 29.2 47.5 125.0 123.0 424.4
07/05 23:20 13.3 90 10.4 11.7 41 56 1023.2 0.6 23.5 29.5 48.1 126.4 124.8 430.5
07/05 23:10 13.5 90 10.53 11.9 35 44 1023.5 0.6 23.7 29.6 48.5 127.6 126.3 435.9
07/05 23:00 13.5 89 10.41 11.7 39 54 1023.9 0.6 23.5 29.4 48.0 126.2 124.6 430.1
07/05 22:50 13.4 89 10.35 11.6 37 52 1024 0.4 23.3 29.4 47.8 125.7 124.0 427.7
07/05 22:40 13.4 89 10.35 11.6 39 46 1023.9 0.4 23.3 29.4 47.8 125.7 123.9 427.7
07/05 22:30 13.4 88 10.23 11.5 35 57 1023.7 0.4 23.1 29.2 47.3 124.3 122.2 421.6
07/05 22:20 13.3 86 9.94 11.1 35 44 1023.7 0.4 22.5 28.7 46.1 121.1 118.3 407.9
07/05 22:10 13.7 86 10.18 11.4 30 41 1023.7 0.4 23.0 29.0 46.9 123.3 121.0 417.5
07/05 22:00 13.5 85 9.94 11 39 52 1023.7 0.2 22.5 28.6 46.0 120.8 118.0 406.8
07/05 21:50 13.5 86 10.06 11.2 37 46 1023.7 0.2 22.7 28.8 46.5 122.2 119.7 412.7
07/05 21:40 13.3 86 9.94 11 41 50 1023.7 0.2 22.5 28.7 46.1 121.1 118.3 407.9
07/05 21:30 13.4 86 10 11.1 39 52 1023.6 0.2 22.6 28.8 46.3 121.7 119.0 410.3
07/05 21:20 13.3 85 9.82 10.8 37 50 1023.5 0.2 22.2 28.5 45.6 119.8 116.6 401.9
07/05 21:10 13.6 81 9.53 10.5 41 48 1023.5 0.2 21.6 27.9 44.2 116.0 112.1 386.3
07/05 21:00 13.9 78 9.35 10.1 41 56 1023.5 0.2 21.2 27.5 43.3 113.6 109.2 376.2
07/05 20:50 14 77 9.29 10 48 56 1023.6 0.2 21.0 27.4 43.0 112.8 108.3 372.9
07/05 20:40 13.6 79 9.3 10 39 54 1023.5 0.2 21.1 27.5 43.2 113.5 109.0 375.3
07/05 20:30 13.4 81 9.42 10.2 35 57 1023.4 0.2 21.4 27.8 43.8 115.1 110.9 382.0
07/05 20:20 13.5 79 9.24 9.9 43 52 1023.4 0.2 21.0 27.4 43.0 112.9 108.3 372.9
07/05 20:10 13.7 76 9 9.5 41 48 1023.5 0.2 20.4 27.0 41.9 110.0 104.7 360.5
07/05 20:00 13.4 78 9.07 9.6 39 56 1023.7 0.2 20.6 27.2 42.4 111.2 106.1 365.3

Last Refresh: 08-May-2026 12:07:27

Bureau of Meteorology